Estación meteorológica de Grions - St- Feliu de Buixalleu (La Selva, Parc Natural del Montseny)

Consulta los datos en tiempo real de la estación meteorológica de Grions - St- Feliu de Buixalleu





Hora UTC 11:00
Temperatura 33.6 ºC
Humedad 52.4 %
Presión 1019.2 hPa
Pluja 0.0 mm
Velocidad viento 4.6 km/h
Dirección viento

Datos diarios 2026-09-04



Hora UTC (invierno +1h; verano +2h)
Temperatura (ºC) Humedad (%) Presión (hPa) Velocidad viento (km/h) Precipitación (mm)
Hora UTC Aire Humedad Presión Vel. Dir. Vel. Max Dir. Intent. máx 5 min.
00:05 22.5 83.1 1020.6 2.7 15.3 0.0
00:10 22.6 82.7 1020.5 3.0 15.3 0.0
00:15 22.6 82.4 1020.5 3.2 15.3 0.0
00:20 22.7 82.8 1020.4 1.5 15.3 0.0
00:25 22.7 82.4 1020.4 1.4 15.3 0.0
00:30 22.9 81.8 1020.5 3.1 15.3 0.0
00:35 22.9 80.7 1020.4 2.2 15.3 0.0
00:40 22.9 80.7 1020.4 2.2 15.3 0.0
00:45 22.7 80.9 1020.3 3.2 15.3 0.0
00:50 22.4 81.0 1020.3 3.7 15.3 0.0
00:55 22.3 81.2 1020.3 4.0 15.3 0.0
01:00 22.3 81.2 1020.3 4.0 15.3 0.0
01:05 21.9 81.1 1020.1 1.8 15.3 0.0
01:10 21.7 80.7 1020.2 5.1 15.3 0.0
01:15 21.6 80.8 1020.1 4.7 15.3 0.0
01:20 21.6 80.8 1020.1 4.7 15.3 0.0
01:25 21.3 81.1 1019.9 5.9 5.5 0.0
01:30 21.3 80.5 1019.9 6.5 6.8 0.0
01:35 21.2 80.4 1019.8 5.7 6.8 0.0
01:40 21.2 80.4 1019.8 5.7 6.8 0.0
01:45 21.1 80.9 1019.8 5.8 6.8 0.0
01:50 21.1 80.9 1019.8 5.8 6.8 0.0
01:55 20.9 81.1 1019.9 3.8 6.8 0.0
02:00 20.9 81.1 1019.9 3.8 6.8 0.0
02:05 20.6 81.5 1019.7 4.3 6.8 0.0
02:10 20.6 81.6 1019.6 2.9 6.8 0.0
02:15 20.4 82.1 1019.7 3.6 6.8 0.0
02:20 20.3 82.4 1019.7 4.3 6.8 0.0
02:25 20.2 82.7 1019.7 3.5 6.8 0.0
02:30 20.2 82.9 1019.7 2.3 6.8 0.0
02:35 20.1 82.9 1019.7 0.1 6.8 0.0
02:40 20.1 82.9 1019.7 0.1 6.8 0.0
02:45 20.1 82.8 1019.5 2.0 6.8 0.0
02:50 20.1 82.8 1019.5 2.0 6.8 0.0
02:55 20.0 83.0 1019.6 0.0 6.8 0.0
03:00 19.9 83.2 1019.6 0.0 6.8 0.0
03:05 19.9 83.5 1019.5 0.0 6.8 0.0
03:10 19.9 83.5 1019.5 0.0 6.8 0.0
03:15 19.9 84.0 1019.5 1.1 6.8 0.0
03:20 19.9 84.0 1019.5 1.1 6.8 0.0
03:25 19.9 84.5 1019.4 0.0 6.8 0.0
03:30 19.9 84.5 1019.3 0.0 6.8 0.0
03:35 19.9 83.9 1019.3 0.0 6.8 0.0
03:40 19.9 83.7 1019.2 0.0 6.8 0.0
03:45 19.8 83.8 1019.2 0.0 6.8 0.0
03:50 19.8 83.8 1019.2 0.0 6.8 0.0
03:55 19.7 84.2 1019.1 0.0 6.8 0.0
04:00 19.7 84.2 1019.1 0.0 6.8 0.0
04:05 19.4 85.1 1019.0 2.6 6.8 0.0
04:10 19.3 85.4 1019.0 1.7 6.8 0.0
04:15 19.3 85.7 1019.0 1.2 6.8 0.0
04:20 19.3 85.7 1019.0 1.2 6.8 0.0
04:25 19.2 85.9 1018.9 0.0 6.8 0.0
04:30 19.2 86.0 1018.9 0.0 6.8 0.0
04:35 19.1 86.1 1018.9 0.0 6.8 0.0
04:40 19.0 86.5 1018.9 0.0 6.8 0.0
04:45 19.0 86.5 1019.0 0.3 6.8 0.0
04:50 19.0 86.4 1019.0 0.2 6.8 0.0
04:55 19.1 86.8 1019.0 0.8 6.8 0.0
05:00 19.1 86.3 1019.1 0.3 6.8 0.0
05:05 18.9 86.3 1019.0 2.1 6.8 0.0
05:10 18.9 86.6 1019.1 0.0 6.8 0.0
05:15 18.8 86.9 1019.1 0.0 6.8 0.0
05:20 18.8 86.9 1019.1 0.0 6.8 0.0
05:25 18.7 87.3 1018.9 0.0 6.8 0.0
05:30 18.7 87.0 1018.9 0.0 6.8 0.0
05:35 18.7 87.2 1019.0 0.0 6.8 0.0
05:40 18.7 87.2 1019.0 0.0 6.8 0.0
05:45 18.7 87.4 1019.1 0.0 6.8 0.0
05:50 18.8 87.7 1019.0 0.0 6.8 0.0
05:55 19.0 87.6 1019.0 0.0 6.8 0.0
06:00 19.2 87.3 1019.0 0.7 6.8 0.0
06:05 19.4 86.8 1019.1 0.0 6.8 0.0
06:10 19.8 85.9 1019.1 0.0 6.8 0.0
06:15 20.1 84.7 1019.2 2.2 6.8 0.0
06:20 20.4 84.0 1019.2 0.4 6.8 0.0
06:25 20.9 83.0 1019.3 0.7 6.8 0.0
06:30 21.3 81.8 1019.3 0.9 6.8 0.0
06:35 21.8 80.2 1019.3 0.2 6.8 0.0
06:40 22.1 78.7 1019.4 0.9 6.8 0.0
06:45 22.5 77.1 1019.4 1.9 6.8 0.0
06:50 22.8 76.4 1019.3 1.7 6.8 0.0
06:55 23.2 75.4 1019.3 3.0 6.8 0.0
07:00 23.2 75.4 1019.3 3.0 6.8 0.0
07:05 23.6 74.7 1019.3 3.3 6.8 0.0
07:10 23.8 74.2 1019.2 3.5 6.8 0.0
07:15 24.1 73.1 1019.2 3.2 6.8 0.0
07:20 24.1 73.1 1019.2 3.2 6.8 0.0
07:25 24.9 71.9 1019.2 1.6 6.8 0.0
07:30 24.9 71.9 1019.2 1.6 6.8 0.0
07:35 26.0 68.6 1019.2 1.3 6.8 0.0
07:40 26.0 68.6 1019.2 1.3 6.8 0.0
07:45 26.8 66.8 1019.3 2.4 6.8 0.0
07:50 26.8 66.8 1019.3 2.4 6.8 0.0
07:55 27.4 65.5 1019.3 1.3 6.8 0.0
08:00 27.8 64.6 1019.4 1.9 6.8 0.0
08:05 28.3 64.2 1019.4 1.9 6.8 0.0
08:10 28.6 62.9 1019.4 2.6 6.8 0.0
08:15 28.7 62.6 1019.3 2.3 6.8 0.0
08:20 28.9 62.2 1019.3 3.0 6.8 0.0
08:25 29.2 61.6 1019.3 2.6 6.8 0.0
08:30 29.2 61.6 1019.3 2.6 6.8 0.0
08:35 29.9 54.0 1019.4 4.4 6.9 0.0
08:40 30.1 52.1 1019.4 4.0 6.9 0.0
08:45 30.4 52.7 1019.5 3.3 6.9 0.0
08:50 30.7 49.4 1019.5 5.0 6.9 0.0
08:55 30.8 49.6 1019.4 4.1 6.9 0.0
09:00 30.9 49.2 1019.5 4.3 6.9 0.0
09:05 31.1 49.2 1019.3 3.4 6.9 0.0
09:10 31.3 50.3 1019.4 6.1 6.9 0.0
09:15 31.3 50.1 1019.6 4.7 6.9 0.0
09:20 31.6 50.3 1019.6 2.5 6.9 0.0
09:25 31.8 49.1 1019.6 4.0 6.9 0.0
09:30 31.8 49.1 1019.6 5.0 6.9 0.0
09:35 31.9 50.0 1019.6 5.1 6.9 0.0
09:40 32.2 49.0 1019.7 4.2 6.9 0.0
09:45 32.3 48.2 1019.6 4.7 7.0 0.0
09:50 32.4 48.5 1019.6 3.4 7.0 0.0
09:55 32.7 48.6 1019.5 2.9 7.0 0.0
10:00 33.1 47.6 1019.5 4.1 7.0 0.0
10:05 33.2 48.9 1019.4 5.9 7.0 0.0
10:10 33.3 49.8 1019.4 5.7 7.0 0.0
10:15 33.3 49.8 1019.2 6.1 7.3 0.0
10:20 33.3 49.4 1019.3 7.2 7.3 0.0
10:25 33.3 50.4 1019.2 5.0 9.1 0.0
10:30 33.4 49.9 1019.2 5.5 9.1 0.0
10:35 33.5 50.0 1019.3 5.8 9.1 0.0
10:40 33.5 50.0 1019.3 5.8 9.1 0.0
10:45 33.4 49.9 1019.2 5.0 9.1 0.0
10:50 33.4 49.9 1019.2 5.0 9.1 0.0
10:55 33.6 52.4 1019.2 4.6 9.1 0.0
11:00 33.6 52.4 1019.2 4.6 9.1 0.0
Máxima 33.6 87.7 1020.6 7.2 15.3 0.0
Mínima 18.7 47.6 1018.9
Total 0.0